Worthing, SD (57077)

11:57 AM CST on November 26, 2014 (GMT -0600)
Northside | Change Station
CLOSE
Current Station
Personal Weather Station
Location: Lennox, SD
Elevation: 1358 ft
Nearby Weather Stations

Elev 1358 ft 43.36 °N, 96.90 °W | Updated 1 minute ago

Partly Cloudy
Partly Cloudy
24.6 °F
Feels Like 16 °F
N
7.8
Wind Variable Wind from NNW

Today
High -- | Low -- °F
--% Chance of Precip.
Yesterday
High -- | Low -- °F
Precip. -- in
7:33 AM 4:54 PM
Waxing Crescent, 21% visible
Pressure 30.25 in
Visibility 10.0 miles
Clouds Few 1500 ft
Few 8000 ft
Windchill 16 °F
Dew Point 19 °F
Humidity 79%
Rainfall 0.00 in
Snow Depth Not available.
UV 2 out of 12
Pollen .10 out of 12
Air Quality Not available.
Flu Activity Not available.
METAR KFSD 261656Z 36020KT 10SM FEW015 FEW080 M06/M09 A3019 RMK AO2 PK WND 35026/1621 SLP243 T10561094

More Conditions Fewer Conditions

Pressure 30.25 in
Visibility 10.0 miles
Clouds Few 1500 ft
Few 8000 ft
Windchill 16 °F
Dew Point 19 °F
Humidity 79%
Rainfall 0.00 in
Snow Depth Not available.
UV 2 out of 12
Pollen .10 out of 12
Air Quality Not available.
Flu Activity Not available.
METAR KFSD 261656Z 36020KT 10SM FEW015 FEW080 M06/M09 A3019 RMK AO2 PK WND 35026/1621 SLP243 T10561094

More Conditions Fewer Conditions

10-Day Weather Forecast

Almanac

Astronomy

Nov. 26, 2014 Rise Set
Actual Time
Civil Twilight
Nautical Twilight
Astronomical Twilight
Moon
Length of Visible Light
Length of Day
Tomorrow will be .
, % of the Moon is Illuminated

Today's Extremes

State Highs State Lows

Community

WunderPhotos

Upload Photos

1,773,808 photos uploaded!

WunderBlogs® & News

Nearby

Air Quality

  Air Quality AQ Index Pollutant
Not available.

Snow Depth

Station Depth Elevation

Earthquake Activity

City Distance Mag. Time & Date
Minimum magnitude displayed is 2.5.

Coastal Water Temperatures

Place Temperature

Nearby Weather Stations